Time;durP1;ratioP1;P1;durP2;ratioP2;P2;SDS_P1;SDS_P2;PMS_P1;PMS_P2;Temp;Humidity;BMP_temperature;BMP_pressure;BME280_temperature;BME280_humidity;BME280_pressure;Samples;Min_cycle;Max_cycle;Signal;HPM_P1;HPM_P2
2021/08/13 00:01:17;;;;;;;;;;;;;;;20.48;49.49;101690.13;5108052;28;19932;-55
2021/08/13 00:03:47;;;;;;;;;;;;;;;20.48;49.29;101687.44;5104843;27;19978;-54
2021/08/13 00:06:15;;;;;;;;;;;;;;;20.50;50.33;101689.09;5104660;27;19928;-52
2021/08/13 00:08:43;;;;;;;;;;;;;;;20.53;50.49;101686.22;5104420;27;19934;-53
2021/08/13 00:11:11;;;;;;;;;;;;;;;20.55;50.74;101684.34;5106553;27;20299;-54
2021/08/13 00:13:39;;;;;;;;;;;;;;;20.61;50.76;101684.97;5106481;28;19986;-54
2021/08/13 00:16:07;;;;;;;;;;;;;;;20.61;51.00;101672.38;5103882;28;19957;-54
2021/08/13 00:18:35;;;;;;;;;;;;;;;20.60;50.77;101675.16;5103593;27;20144;-55
2021/08/13 00:21:04;;;;;;;;;;;;;;;20.51;52.49;101666.66;5103992;27;19973;-55
2021/08/13 00:23:32;;;;;;;;;;;;;;;20.57;51.01;101671.66;5104925;27;19928;-54
2021/08/13 00:26:00;;;;;;;;;;;;;;;20.58;50.17;101669.88;5108934;27;19928;-54
2021/08/13 00:28:28;;;;;;;;;;;;;;;20.50;50.13;101672.06;5112984;27;19935;-54
2021/08/13 00:30:56;;;;;;;;;;;;;;;20.45;49.97;101677.72;5104862;27;20364;-55
2021/08/13 00:33:24;;;;;;;;;;;;;;;20.43;50.72;101673.38;5134763;27;19938;-53
2021/08/13 00:35:53;;;;;;;;;;;;;;;20.48;51.37;101671.31;5125230;27;20010;-53
2021/08/13 00:38:22;;;;;;;;;;;;;;;20.49;51.40;101665.84;5110046;27;20322;-54
2021/08/13 00:40:51;;;;;;;;;;;;;;;20.52;51.38;101657.59;5108864;27;19924;-53
2021/08/13 00:43:19;;;;;;;;;;;;;;;20.49;51.19;101656.94;5121338;27;19987;-52
2021/08/13 00:45:48;;;;;;;;;;;;;;;20.48;49.98;101657.88;5099263;27;19947;-53
2021/08/13 00:48:18;;;;;;;;;;;;;;;20.41;49.95;101654.66;5103700;27;19981;-53
2021/08/13 00:50:57;;;;;;;;;;;;;;;20.37;50.01;101659.31;5105043;27;19923;-52
2021/08/13 00:53:27;;;;;;;;;;;;;;;20.35;49.95;101657.69;5122302;27;19931;-52
2021/08/13 00:55:55;;;;;;;;;;;;;;;20.33;50.12;101648.81;5107610;27;19923;-53
2021/08/13 00:58:59;;;;;;;;;;;;;;;20.39;52.65;101646.69;5042564;28;20361;-55
2021/08/13 01:01:38;;;;;;;;;;;;;;;20.44;52.49;101650.94;5090499;28;19924;-53
2021/08/13 01:04:06;;;;;;;;;;;;;;;20.46;51.61;101644.53;5113016;28;20735;-52
2021/08/13 01:06:34;;;;;;;;;;;;;;;20.50;51.57;101645.22;5108213;28;19951;-53
2021/08/13 01:09:04;;;;;;;;;;;;;;;20.50;50.56;101632.66;5103063;27;19931;-53
2021/08/13 01:11:38;;;;;;;;;;;;;;;20.42;50.14;101634.03;5105361;28;19967;-54
2021/08/13 01:14:10;;;;;;;;;;;;;;;20.35;50.32;101630.81;5131224;27;19955;-52
2021/08/13 01:16:44;;;;;;;;;;;;;;;20.33;49.86;101621.94;5100000;28;20010;-54
2021/08/13 01:19:16;;;;;;;;;;;;;;;20.30;50.08;101619.44;5105546;28;20724;-54
2021/08/13 01:21:46;;;;;;;;;;;;;;;20.32;50.99;101620.25;5102158;28;19950;-55
2021/08/13 01:24:22;;;;;;;;;;;;;;;20.35;51.07;101623.59;5107058;28;19924;-56
2021/08/13 01:26:53;;;;;;;;;;;;;;;20.37;51.25;101615.47;5100767;28;19932;-53
2021/08/13 01:29:31;;;;;;;;;;;;;;;20.40;51.28;101604.56;5112951;27;20991;-53
2021/08/13 01:32:11;;;;;;;;;;;;;;;20.32;50.28;101602.28;5108590;28;20424;-54
2021/08/13 01:34:45;;;;;;;;;;;;;;;20.33;50.93;101604.03;5105027;28;19924;-54
2021/08/13 01:37:14;;;;;;;;;;;;;;;20.32;50.28;101599.59;5119800;27;19968;-53
2021/08/13 01:39:44;;;;;;;;;;;;;;;20.26;49.88;101604.44;5105406;28;19924;-55
2021/08/13 01:42:13;;;;;;;;;;;;;;;20.17;50.07;101595.94;5103487;28;19935;-54
2021/08/13 01:44:42;;;;;;;;;;;;;;;20.19;50.82;101598.53;5103419;28;19927;-53
2021/08/13 01:47:10;;;;;;;;;;;;;;;20.20;51.43;101598.44;5113688;28;19991;-52
2021/08/13 01:49:39;;;;;;;;;;;;;;;20.25;51.47;101595.53;5104773;28;19923;-54
2021/08/13 01:52:08;;;;;;;;;;;;;;;20.26;51.46;101602.63;5105325;28;19999;-55
2021/08/13 01:54:37;;;;;;;;;;;;;;;20.28;51.46;101597.19;5098592;28;19943;-53
2021/08/13 01:57:06;;;;;;;;;;;;;;;20.28;50.16;101592.66;5102189;28;19924;-52
2021/08/13 01:59:35;;;;;;;;;;;;;;;20.21;49.87;101588.56;5106257;28;19983;-54
2021/08/13 02:02:04;;;;;;;;;;;;;;;20.17;50.09;101587.00;5128424;27;19928;-53
2021/08/13 02:04:41;;;;;;;;;;;;;;;20.13;49.91;101585.44;5110118;28;19954;-55
2021/08/13 02:07:12;;;;;;;;;;;;;;;20.14;49.69;101589.88;5121637;27;19932;-54
2021/08/13 02:09:42;;;;;;;;;;;;;;;20.18;52.24;101586.91;5129416;27;19928;-55
2021/08/13 02:12:10;;;;;;;;;;;;;;;20.22;52.28;101583.13;5105547;28;19923;-55
2021/08/13 02:14:39;;;;;;;;;;;;;;;20.26;51.15;101589.19;5105885;28;20524;-55
2021/08/13 02:17:11;;;;;;;;;;;;;;;20.27;51.16;101587.38;5101621;28;19932;-55
2021/08/13 02:19:43;;;;;;;;;;;;;;;20.29;51.24;101582.78;5112546;28;19931;-53
2021/08/13 02:22:13;;;;;;;;;;;;;;;20.23;50.06;101578.63;5106113;28;19938;-55
2021/08/13 02:24:42;;;;;;;;;;;;;;;20.12;49.82;101584.59;5129082;27;20076;-54
2021/08/13 02:27:14;;;;;;;;;;;;;;;20.07;49.86;101589.34;5108751;28;19947;-55
2021/08/13 02:29:44;;;;;;;;;;;;;;;20.04;49.87;101585.00;5137737;27;19928;-54
2021/08/13 02:32:13;;;;;;;;;;;;;;;19.98;48.67;101585.31;5123100;27;19928;-53
2021/08/13 02:34:41;;;;;;;;;;;;;;;19.77;49.09;101584.63;5113354;28;19931;-54
2021/08/13 02:37:18;;;;;;;;;;;;;;;19.84;49.53;101572.66;5106527;27;19924;-54
2021/08/13 02:39:49;;;;;;;;;;;;;;;19.87;49.26;101575.16;5106956;27;19936;-54
2021/08/13 02:42:18;;;;;;;;;;;;;;;19.89;49.41;101570.56;5106599;27;19961;-55
2021/08/13 02:44:48;;;;;;;;;;;;;;;19.99;50.82;101573.63;5107364;28;19958;-55
2021/08/13 02:47:19;;;;;;;;;;;;;;;20.01;50.44;101578.91;5119254;27;19928;-56
2021/08/13 02:49:51;;;;;;;;;;;;;;;19.93;49.32;101576.63;5138871;27;19935;-56
2021/08/13 02:52:25;;;;;;;;;;;;;;;19.88;49.39;101574.22;5108399;27;20005;-54
2021/08/13 02:54:55;;;;;;;;;;;;;;;19.86;49.27;101565.38;5107042;27;19963;-54
2021/08/13 02:57:23;;;;;;;;;;;;;;;19.87;49.31;101566.22;5108499;27;19932;-54
2021/08/13 02:59:54;;;;;;;;;;;;;;;19.86;48.97;101559.13;5106990;28;19943;-53
2021/08/13 03:02:23;;;;;;;;;;;;;;;19.88;50.27;101558.09;5108893;27;19938;-54
2021/08/13 03:04:53;;;;;;;;;;;;;;;19.92;50.42;101558.78;5102565;27;19942;-56
2021/08/13 03:07:24;;;;;;;;;;;;;;;19.93;50.66;101560.53;5105744;28;19963;-55
2021/08/13 03:09:52;;;;;;;;;;;;;;;19.96;50.88;101563.06;5107684;27;19950;-55
2021/08/13 03:12:20;;;;;;;;;;;;;;;20.00;50.61;101561.06;5139333;27;19924;-55
2021/08/13 03:14:49;;;;;;;;;;;;;;;19.90;49.79;101555.34;5106663;27;19932;-54
2021/08/13 03:17:18;;;;;;;;;;;;;;;19.84;49.50;101548.50;5108789;27;19928;-54
2021/08/13 03:19:46;;;;;;;;;;;;;;;19.78;48.17;101556.84;5102748;27;19931;-55
2021/08/13 03:22:15;;;;;;;;;;;;;;;19.60;48.84;101573.91;5132279;27;20391;-53
2021/08/13 03:24:44;;;;;;;;;;;;;;;19.63;49.27;101563.84;5109281;27;19932;-56
2021/08/13 03:27:12;;;;;;;;;;;;;;;19.54;49.05;101567.91;5143959;27;19932;-52
2021/08/13 03:29:40;;;;;;;;;;;;;;;19.57;49.32;101557.00;5112000;27;19924;-56
2021/08/13 03:32:09;;;;;;;;;;;;;;;19.71;50.62;101558.09;5141984;27;20392;-55
2021/08/13 03:34:37;;;;;;;;;;;;;;;19.75;50.80;101565.03;5103655;27;19923;-56
2021/08/13 03:37:06;;;;;;;;;;;;;;;19.78;50.88;101553.25;5105478;27;19935;-53
2021/08/13 03:39:38;;;;;;;;;;;;;;;19.80;51.03;101554.91;5107132;28;19928;-54
2021/08/13 03:42:08;;;;;;;;;;;;;;;19.76;49.67;101561.41;5111486;27;19928;-55
2021/08/13 03:44:36;;;;;;;;;;;;;;;19.70;49.39;101557.22;5111210;27;19932;-53
2021/08/13 03:47:05;;;;;;;;;;;;;;;19.67;48.94;101551.16;5108698;28;20239;-53
2021/08/13 03:49:35;;;;;;;;;;;;;;;19.65;49.07;101548.56;5121898;27;19931;-53
2021/08/13 03:52:03;;;;;;;;;;;;;;;19.85;50.34;101549.34;5110248;27;19924;-54
2021/08/13 03:54:31;;;;;;;;;;;;;;;20.03;50.47;101550.19;5104198;27;19936;-55
2021/08/13 03:57:00;;;;;;;;;;;;;;;20.14;50.64;101553.13;5111861;27;19930;-56
2021/08/13 03:59:30;;;;;;;;;;;;;;;20.25;50.51;101552.56;5139112;27;20002;-55
2021/08/13 04:01:59;;;;;;;;;;;;;;;20.14;49.71;101555.81;5102813;27;19928;-56
2021/08/13 04:04:28;;;;;;;;;;;;;;;19.94;48.37;101548.00;5106411;28;20026;-55
2021/08/13 04:06:56;;;;;;;;;;;;;;;19.81;48.43;101542.38;5106351;27;20012;-55
2021/08/13 04:09:24;;;;;;;;;;;;;;;19.73;48.38;101549.00;5107861;27;19924;-55
2021/08/13 04:11:52;;;;;;;;;;;;;;;19.71;49.48;101539.31;5107355;27;20329;-55
2021/08/13 04:14:23;;;;;;;;;;;;;;;19.71;48.81;101550.94;5111766;27;19974;-55
2021/08/13 04:16:53;;;;;;;;;;;;;;;19.71;49.49;101544.66;5099594;27;19923;-56
2021/08/13 04:19:23;;;;;;;;;;;;;;;19.72;49.68;101533.00;5113976;27;19931;-55
2021/08/13 04:21:52;;;;;;;;;;;;;;;19.74;49.75;101531.09;5105116;27;20716;-55
2021/08/13 04:24:20;;;;;;;;;;;;;;;19.77;49.83;101524.72;5110087;27;19957;-55
2021/08/13 04:26:48;;;;;;;;;;;;;;;19.69;48.55;101528.66;5108208;27;20046;-55
2021/08/13 04:29:17;;;;;;;;;;;;;;;19.64;48.51;101522.66;5102260;27;19959;-54
2021/08/13 04:31:45;;;;;;;;;;;;;;;19.70;49.31;101527.72;5115056;27;19927;-54
2021/08/13 04:34:14;;;;;;;;;;;;;;;19.92;50.58;101537.31;5108735;28;19959;-55
2021/08/13 04:36:43;;;;;;;;;;;;;;;20.10;50.61;101531.91;5103632;28;19932;-55
2021/08/13 04:39:10;;;;;;;;;;;;;;;20.21;50.50;101532.16;5110241;28;19939;-55
2021/08/13 04:41:40;;;;;;;;;;;;;;;20.15;49.38;101530.69;5111064;28;20003;-55
2021/08/13 04:44:09;;;;;;;;;;;;;;;20.00;48.88;101531.53;5102966;28;19942;-53
2021/08/13 04:46:37;;;;;;;;;;;;;;;19.81;47.96;101531.63;5112010;27;19931;-55
2021/08/13 04:49:07;;;;;;;;;;;;;;;19.55;47.19;101525.84;5140107;27;19943;-55
2021/08/13 04:51:36;;;;;;;;;;;;;;;19.49;46.97;101521.66;5099745;28;19931;-55
2021/08/13 04:54:04;;;;;;;;;;;;;;;19.46;47.72;101516.44;5102382;28;20034;-56
2021/08/13 04:56:32;;;;;;;;;;;;;;;19.60;47.79;101526.47;5104353;28;19931;-55
2021/08/13 04:59:01;;;;;;;;;;;;;;;19.70;50.13;101519.66;5093028;28;19986;-54
2021/08/13 05:01:45;;;;;;;;;;;;;;;19.68;51.74;101532.28;5097040;28;19932;-54
2021/08/13 05:04:13;;;;;;;;;;;;;;;19.78;52.34;101530.00;5100569;28;19936;-55
2021/08/13 05:06:43;;;;;;;;;;;;;;;19.69;52.56;101534.03;5120895;27;19924;-59
2021/08/13 05:09:11;;;;;;;;;;;;;;;19.79;51.58;101537.09;5105616;28;19927;-56
2021/08/13 05:11:39;;;;;;;;;;;;;;;19.82;51.43;101528.91;5100492;28;19939;-56
2021/08/13 05:14:08;;;;;;;;;;;;;;;19.89;52.08;101537.47;5098579;27;19928;-58
2021/08/13 05:16:36;;;;;;;;;;;;;;;19.92;52.08;101537.31;5104277;27;19942;-56
2021/08/13 05:19:05;;;;;;;;;;;;;;;19.94;52.88;101532.72;5102492;28;19932;-56
2021/08/13 05:21:36;;;;;;;;;;;;;;;19.91;53.51;101524.84;5103132;28;19978;-56
2021/08/13 05:24:06;;;;;;;;;;;;;;;19.90;54.80;101528.50;5113937;27;19928;-47
2021/08/13 05:26:34;;;;;;;;;;;;;;;19.85;55.19;101531.41;5096195;28;19934;-46
2021/08/13 05:29:05;;;;;;;;;;;;;;;19.87;54.14;101528.63;5096876;28;19934;-54
2021/08/13 05:31:33;;;;;;;;;;;;;;;19.86;53.13;101533.16;5097910;27;19928;-51
2021/08/13 05:34:01;;;;;;;;;;;;;;;19.77;52.50;101527.38;5099163;28;19924;-51
2021/08/13 05:36:29;;;;;;;;;;;;;;;19.94;52.72;101530.06;5111522;27;19939;-54
2021/08/13 05:38:58;;;;;;;;;;;;;;;19.94;51.86;101532.72;5094245;28;19928;-55
2021/08/13 05:41:29;;;;;;;;;;;;;;;19.83;56.02;101532.44;5093017;28;20056;-49
2021/08/13 05:43:59;;;;;;;;;;;;;;;19.85;56.95;101549.34;5099103;28;19965;-59
2021/08/13 05:46:27;;;;;;;;;;;;;;;19.86;57.93;101538.53;5096749;28;19971;-59
2021/08/13 05:48:57;;;;;;;;;;;;;;;19.89;56.67;101541.03;5132728;27;19928;-58
2021/08/13 05:51:26;;;;;;;;;;;;;;;19.74;56.70;101545.38;5099271;28;19928;-55
2021/08/13 05:53:54;;;;;;;;;;;;;;;19.72;56.10;101544.63;5093203;28;19928;-57
2021/08/13 05:56:22;;;;;;;;;;;;;;;19.80;56.06;101540.63;5108461;27;19935;-60
2021/08/13 05:58:52;;;;;;;;;;;;;;;19.80;56.26;101540.63;5099776;28;19932;-56
2021/08/13 06:01:20;;;;;;;;;;;;;;;19.85;55.70;101541.28;5092755;28;20038;-54
2021/08/13 06:03:48;;;;;;;;;;;;;;;19.95;56.88;101547.00;5096824;28;19931;-58
2021/08/13 06:06:16;;;;;;;;;;;;;;;19.99;56.87;101556.66;5095257;28;19982;-60
2021/08/13 06:08:44;;;;;;;;;;;;;;;19.97;56.66;101543.28;5115448;27;19928;-61
2021/08/13 06:11:12;;;;;;;;;;;;;;;20.04;55.67;101559.94;5095136;28;19931;-61
2021/08/13 06:13:40;;;;;;;;;;;;;;;20.09;55.79;101559.69;5128135;27;19932;-59
2021/08/13 06:16:10;;;;;;;;;;;;;;;20.09;55.26;101563.25;5105384;27;19999;-63
2021/08/13 06:18:38;;;;;;;;;;;;;;;20.05;55.39;101564.38;5111255;27;19982;-59
2021/08/13 06:21:07;;;;;;;;;;;;;;;20.02;54.25;101573.47;5105873;27;19928;-58
2021/08/13 06:23:36;;;;;;;;;;;;;;;19.96;54.69;101571.13;5103974;28;19948;-58
2021/08/13 06:26:06;;;;;;;;;;;;;;;20.01;55.82;101570.84;5096375;27;21064;-56
2021/08/13 06:28:38;;;;;;;;;;;;;;;20.08;56.06;101564.22;5135814;27;20336;-59
2021/08/13 06:31:07;;;;;;;;;;;;;;;20.11;56.53;101557.81;5104986;27;19928;-58
2021/08/13 06:33:37;;;;;;;;;;;;;;;20.09;56.53;101563.25;5102383;27;20547;-59
2021/08/13 06:36:06;;;;;;;;;;;;;;;20.08;55.32;101566.91;5100176;27;19928;-59
2021/08/13 06:38:36;;;;;;;;;;;;;;;19.96;55.37;101559.50;5095305;27;19952;-57
2021/08/13 06:41:05;;;;;;;;;;;;;;;20.12;55.61;101554.16;5103780;27;20106;-59
2021/08/13 06:43:45;;;;;;;;;;;;;;;20.12;55.25;101559.53;5122629;27;19936;-60
2021/08/13 06:46:15;;;;;;;;;;;;;;;20.11;55.18;101557.81;5115204;27;20327;-59
2021/08/13 06:48:45;;;;;;;;;;;;;;;20.10;56.30;101554.25;5111476;28;19927;-58
2021/08/13 06:51:13;;;;;;;;;;;;;;;20.16;56.52;101567.34;5107955;28;19927;-61
2021/08/13 06:53:41;;;;;;;;;;;;;;;20.22;57.35;101564.31;5102695;28;19928;-55
2021/08/13 06:56:09;;;;;;;;;;;;;;;20.24;57.61;101564.25;5110400;28;19934;-59
2021/08/13 06:58:37;;;;;;;;;;;;;;;20.22;57.41;101574.19;5107192;28;19928;-51
2021/08/13 07:01:05;;;;;;;;;;;;;;;20.31;56.33;101567.44;5099961;28;20053;-48
2021/08/13 07:03:34;;;;;;;;;;;;;;;20.37;56.84;101565.28;5107407;28;19949;-52
2021/08/13 07:06:03;;;;;;;;;;;;;;;20.40;56.69;101572.31;5098126;28;19932;-55
2021/08/13 07:08:32;;;;;;;;;;;;;;;20.38;57.38;101566.13;5104822;28;19928;-57
2021/08/13 07:11:04;;;;;;;;;;;;;;;20.42;58.02;101575.78;5105566;28;19927;-52
2021/08/13 07:13:32;;;;;;;;;;;;;;;20.41;59.04;101563.31;5122036;27;19927;-51
2021/08/13 07:16:00;;;;;;;;;;;;;;;20.41;59.15;101557.94;5103000;28;20419;-55
2021/08/13 07:18:32;;;;;;;;;;;;;;;20.32;58.08;101567.34;5095111;28;19947;-47
2021/08/13 07:21:00;;;;;;;;;;;;;;;20.37;57.41;101565.28;5099808;28;20078;-46
2021/08/13 07:23:30;;;;;;;;;;;;;;;20.37;57.75;101559.91;5103577;28;19973;-51
2021/08/13 07:25:58;;;;;;;;;;;;;;;20.43;58.39;101560.53;5106769;28;19936;-47
2021/08/13 07:28:26;;;;;;;;;;;;;;;20.45;59.93;101572.91;5104431;27;19935;-47
2021/08/13 07:30:55;;;;;;;;;;;;;;;20.40;60.34;101565.09;5103943;27;19949;-50
2021/08/13 07:33:30;;;;;;;;;;;;;;;20.46;60.54;101568.41;5096296;28;19932;-53
2021/08/13 07:35:58;;;;;;;;;;;;;;;20.50;60.32;101564.59;5100823;28;19984;-49
2021/08/13 07:38:26;;;;;;;;;;;;;;;20.56;60.47;101558.88;5100223;28;19939;-49
2021/08/13 07:40:56;;;;;;;;;;;;;;;20.50;59.44;101565.47;5104502;28;20009;-56
2021/08/13 07:43:24;;;;;;;;;;;;;;;20.53;59.82;101559.06;5101958;28;19935;-55
2021/08/13 07:45:52;;;;;;;;;;;;;;;20.57;59.31;101566.84;5101505;27;20531;-50
2021/08/13 07:48:20;;;;;;;;;;;;;;;20.66;59.38;101560.09;5094229;28;19938;-54
2021/08/13 07:50:48;;;;;;;;;;;;;;;20.67;60.13;101564.50;5100039;28;20655;-52
2021/08/13 07:53:16;;;;;;;;;;;;;;;20.63;61.18;101573.72;5104806;28;19951;-49
2021/08/13 07:55:45;;;;;;;;;;;;;;;20.59;62.14;101572.13;5109391;28;19946;-48
2021/08/13 07:58:15;;;;;;;;;;;;;;;20.64;61.91;101571.88;5101173;28;19930;-57
2021/08/13 08:00:44;;;;;;;;;;;;;;;20.73;61.72;101572.22;5100691;28;19928;-52
2021/08/13 08:03:13;;;;;;;;;;;;;;;20.70;60.27;101572.44;5097777;27;19957;-50
2021/08/13 08:05:41;;;;;;;;;;;;;;;20.60;59.92;101565.81;5102639;28;19938;-50
2021/08/13 08:08:09;;;;;;;;;;;;;;;20.59;59.54;101573.97;5105549;28;19926;-55
2021/08/13 08:10:37;;;;;;;;;;;;;;;20.44;58.59;101571.19;5103257;28;19935;-58
2021/08/13 08:13:05;;;;;;;;;;;;;;;20.37;58.07;101580.56;5098585;28;22066;-68
2021/08/13 08:15:35;;;;;;;;;;;;;;;20.47;59.56;101597.00;5097265;28;19935;-63
2021/08/13 08:18:03;;;;;;;;;;;;;;;20.37;59.53;101588.59;5105816;28;20401;-61
2021/08/13 08:20:31;;;;;;;;;;;;;;;20.28;59.26;101589.13;5102190;28;19932;-60
2021/08/13 08:22:59;;;;;;;;;;;;;;;20.34;58.95;101588.75;5104789;28;19928;-60
2021/08/13 08:25:27;;;;;;;;;;;;;;;20.23;57.30;101590.22;5099016;28;19950;-63
2021/08/13 08:27:55;;;;;;;;;;;;;;;20.44;57.88;101581.94;5100586;28;19981;-60
2021/08/13 08:30:23;;;;;;;;;;;;;;;20.48;56.59;101590.69;5091288;28;20370;-61
2021/08/13 08:32:52;;;;;;;;;;;;;;;20.50;55.83;101586.09;5100830;28;19980;-59
2021/08/13 08:35:20;;;;;;;;;;;;;;;20.49;55.58;101590.59;5099690;28;19928;-62
2021/08/13 08:37:51;;;;;;;;;;;;;;;20.56;56.33;101588.44;5101802;28;20062;-61
2021/08/13 08:40:23;;;;;;;;;;;;;;;20.33;57.89;101584.34;5103916;28;19932;-57
2021/08/13 08:42:53;;;;;;;;;;;;;;;20.51;57.79;101577.06;5094792;28;20314;-58
2021/08/13 08:45:21;;;;;;;;;;;;;;;20.49;58.15;101573.63;5096841;28;19928;-57
2021/08/13 08:47:50;;;;;;;;;;;;;;;20.37;58.47;101576.03;5102092;28;20373;-57
2021/08/13 08:50:20;;;;;;;;;;;;;;;20.58;57.83;101573.09;5102740;27;19924;-63
2021/08/13 08:52:49;;;;;;;;;;;;;;;20.63;56.81;101584.47;5105126;28;19934;-60
2021/08/13 08:55:17;;;;;;;;;;;;;;;20.65;56.85;101592.44;5100365;27;19959;-58
2021/08/13 08:57:46;;;;;;;;;;;;;;;20.85;56.28;101586.78;5096058;28;20261;-61
2021/08/13 09:00:15;;;;;;;;;;;;;;;20.77;55.34;101597.13;5100561;28;20745;-60
2021/08/13 09:02:44;;;;;;;;;;;;;;;20.86;53.99;101598.44;5100832;28;20027;-57
2021/08/13 09:05:13;;;;;;;;;;;;;;;20.88;53.90;101596.50;5099758;28;20038;-59
2021/08/13 09:07:43;;;;;;;;;;;;;;;20.94;54.29;101596.16;5104249;28;19935;-61
2021/08/13 09:10:12;;;;;;;;;;;;;;;20.96;52.96;101596.97;5095033;28;20061;-60
2021/08/13 09:12:41;;;;;;;;;;;;;;;20.93;53.10;101598.94;5095847;27;19953;-58
2021/08/13 09:15:24;;;;;;;;;;;;;;;20.94;54.18;101598.84;5097333;28;20810;-59
2021/08/13 09:18:09;;;;;;;;;;;;;;;20.73;56.85;101601.81;5104584;28;19928;-59
2021/08/13 09:20:38;;;;;;;;;;;;;;;20.84;56.04;101603.91;5099546;27;19963;-61
2021/08/13 09:23:07;;;;;;;;;;;;;;;20.99;54.33;101601.28;5098505;28;19981;-58
2021/08/13 09:25:35;;;;;;;;;;;;;;;21.11;55.25;101597.03;5095959;28;19950;-60
2021/08/13 09:28:37;;;;;;;;;;;;;;;21.66;57.82;101604.50;5103057;28;20046;-54
2021/08/13 09:31:10;;;;;;;;;;;;;;;21.87;56.99;101607.72;5104701;28;19928;-56
2021/08/13 09:33:38;;;;;;;;;;;;;;;22.05;58.21;101604.88;5105847;28;19928;-58
2021/08/13 09:36:07;;;;;;;;;;;;;;;21.04;61.18;101594.69;5099605;28;19931;-56
2021/08/13 09:38:39;;;;;;;;;;;;;;;20.76;62.42;101597.22;5095013;28;19932;-57
2021/08/13 09:41:07;;;;;;;;;;;;;;;20.62;63.11;101609.59;5098447;28;19927;-57
2021/08/13 09:43:50;;;;;;;;;;;;;;;20.52;62.42;101608.38;5099535;28;19933;-58
2021/08/13 09:46:19;;;;;;;;;;;;;;;20.69;62.54;101610.13;5100191;28;20545;-58
2021/08/13 09:48:51;;;;;;;;;;;;;;;20.22;60.44;101617.16;5104409;28;19974;-54
2021/08/13 09:51:32;;;;;;;;;;;;;;;20.05;60.00;101610.91;5100373;27;19944;-57
2021/08/13 09:54:03;;;;;;;;;;;;;;;20.07;59.07;101605.44;5102051;28;19949;-56
2021/08/13 09:56:32;;;;;;;;;;;;;;;20.01;58.67;101603.94;5097252;27;19998;-58
2021/08/13 09:59:07;;;;;;;;;;;;;;;20.10;58.17;101596.34;5103839;28;19996;-58
2021/08/13 10:01:36;;;;;;;;;;;;;;;20.35;58.29;101594.03;5101869;28;19928;-58
2021/08/13 10:04:05;;;;;;;;;;;;;;;20.22;59.44;101593.00;5099298;28;19931;-57
2021/08/13 10:06:34;;;;;;;;;;;;;;;20.21;59.71;101586.75;5103311;28;19938;-58
2021/08/13 10:09:05;;;;;;;;;;;;;;;20.23;59.92;101594.72;5097904;28;19934;-57
2021/08/13 10:11:35;;;;;;;;;;;;;;;20.23;59.12;101587.53;5107594;28;20022;-58
2021/08/13 10:14:05;;;;;;;;;;;;;;;20.40;60.10;101586.59;5108396;27;19928;-59
2021/08/13 10:16:33;;;;;;;;;;;;;;;20.62;58.08;101581.84;5105848;28;19989;-61
2021/08/13 10:19:08;;;;;;;;;;;;;;;20.29;56.95;101586.34;5112025;28;20235;-57
2021/08/13 10:21:36;;;;;;;;;;;;;;;20.16;56.84;101583.47;5098075;28;19932;-57
2021/08/13 10:24:09;;;;;;;;;;;;;;;20.28;57.53;101583.75;5104239;28;19935;-58
2021/08/13 10:26:40;;;;;;;;;;;;;;;20.34;57.24;101583.38;5103242;28;19928;-58
2021/08/13 10:29:09;;;;;;;;;;;;;;;20.85;57.07;101583.25;5099247;28;20412;-58
2021/08/13 10:31:38;;;;;;;;;;;;;;;20.69;56.86;101585.94;5097899;28;19928;-57
2021/08/13 10:34:09;;;;;;;;;;;;;;;20.36;58.35;101576.13;5103759;27;20491;-58
2021/08/13 10:36:39;;;;;;;;;;;;;;;20.32;58.98;101580.78;5101316;28;19932;-57
2021/08/13 10:39:09;;;;;;;;;;;;;;;20.34;59.35;101576.22;5101688;28;20300;-58
2021/08/13 10:41:39;;;;;;;;;;;;;;;20.33;59.07;101573.59;5105935;27;19983;-58
2021/08/13 10:44:09;;;;;;;;;;;;;;;20.43;59.45;101568.59;5106159;28;19939;-56
2021/08/13 10:46:38;;;;;;;;;;;;;;;20.48;59.97;101558.44;5099476;28;19931;-57
2021/08/13 10:49:10;;;;;;;;;;;;;;;20.66;59.30;101561.91;5100350;28;20404;-57
2021/08/13 10:51:38;;;;;;;;;;;;;;;20.13;58.22;101567.53;5106472;27;19935;-58
2021/08/13 10:54:13;;;;;;;;;;;;;;;19.95;57.83;101558.63;5102981;28;20010;-58
2021/08/13 10:56:44;;;;;;;;;;;;;;;20.18;57.63;101553.81;5102502;28;19954;-58
2021/08/13 10:59:47;;;;;;;;;;;;;;;20.36;56.90;101543.88;5098085;27;20383;-59
2021/08/13 11:02:20;;;;;;;;;;;;;;;20.28;56.13;101538.94;5114683;27;19932;-61
2021/08/13 11:04:52;;;;;;;;;;;;;;;20.31;57.63;101545.97;5097553;27;19964;-60
2021/08/13 11:07:42;;;;;;;;;;;;;;;20.37;57.98;101541.09;5118489;27;19981;-60
2021/08/13 11:10:38;;;;;;;;;;;;;;;20.50;57.77;101538.59;5098421;28;20511;-60
2021/08/13 11:13:10;;;;;;;;;;;;;;;20.53;58.95;101537.56;5106837;27;20220;-61
2021/08/13 11:15:38;;;;;;;;;;;;;;;21.10;61.41;101534.25;5098291;28;19928;-58
2021/08/13 11:18:21;;;;;;;;;;;;;;;21.14;62.15;101533.13;5096895;28;19959;-60
2021/08/13 11:20:49;;;;;;;;;;;;;;;20.76;61.30;101535.38;5101108;27;19932;-59
2021/08/13 11:23:17;;;;;;;;;;;;;;;20.54;62.89;101532.09;5106532;28;19928;-60
2021/08/13 11:25:48;;;;;;;;;;;;;;;20.55;61.64;101538.31;5100326;27;20031;-60
2021/08/13 11:28:21;;;;;;;;;;;;;;;20.46;61.49;101533.47;5135634;27;19928;-61
2021/08/13 11:30:55;;;;;;;;;;;;;;;20.22;59.67;101531.22;5094412;28;19932;-64
2021/08/13 11:33:44;;;;;;;;;;;;;;;20.03;59.45;101534.06;5095609;28;20030;-61
2021/08/13 11:36:33;;;;;;;;;;;;;;;20.11;57.83;101536.31;5096612;28;20019;-62
2021/08/13 11:39:02;;;;;;;;;;;;;;;20.36;56.33;101542.03;5101952;28;19932;-59
2021/08/13 11:41:33;;;;;;;;;;;;;;;20.11;57.20;101545.25;5098673;28;19938;-59
2021/08/13 11:44:09;;;;;;;;;;;;;;;20.20;58.78;101544.72;5132873;27;19970;-59
2021/08/13 11:46:43;;;;;;;;;;;;;;;20.21;57.12;101551.84;5102996;28;19928;-61
2021/08/13 11:49:16;;;;;;;;;;;;;;;20.15;58.75;101545.94;5104429;28;19955;-62
2021/08/13 11:51:45;;;;;;;;;;;;;;;20.13;58.74;101548.72;5131655;27;19993;-62
2021/08/13 11:54:24;;;;;;;;;;;;;;;20.07;57.68;101533.78;5112472;28;19928;-61
2021/08/13 11:56:54;;;;;;;;;;;;;;;19.82;57.61;101528.91;5108043;28;19928;-61
2021/08/13 11:59:22;;;;;;;;;;;;;;;19.79;57.25;101539.78;5133473;27;19958;-61
2021/08/13 12:01:51;;;;;;;;;;;;;;;19.89;56.49;101535.66;5104542;28;19950;-61
2021/08/13 12:04:22;;;;;;;;;;;;;;;19.81;56.19;101540.56;5111968;28;19924;-61
2021/08/13 12:06:59;;;;;;;;;;;;;;;19.81;56.08;101529.84;5101028;28;19924;-60
2021/08/13 12:09:31;;;;;;;;;;;;;;;19.78;56.10;101523.72;5119371;27;20345;-61
2021/08/13 12:12:04;;;;;;;;;;;;;;;19.96;57.94;101522.78;5100830;28;19932;-61
2021/08/13 12:14:33;;;;;;;;;;;;;;;19.89;56.20;101516.00;5104219;28;19927;-61
2021/08/13 12:17:02;;;;;;;;;;;;;;;19.96;57.03;101514.75;5110258;27;19928;-61
2021/08/13 12:19:30;;;;;;;;;;;;;;;19.83;56.33;101506.47;5105529;28;19924;-61
2021/08/13 12:21:59;;;;;;;;;;;;;;;19.71;55.96;101505.28;5105054;28;19935;-61
2021/08/13 12:24:29;;;;;;;;;;;;;;;19.70;55.60;101498.19;5109086;27;19928;-61
2021/08/13 12:26:58;;;;;;;;;;;;;;;19.61;55.77;101496.00;5101193;28;20706;-60
2021/08/13 12:29:28;;;;;;;;;;;;;;;19.69;55.45;101493.75;5101767;28;19939;-61
2021/08/13 12:31:58;;;;;;;;;;;;;;;19.62;55.17;101494.16;5108859;28;19928;-60
2021/08/13 12:34:27;;;;;;;;;;;;;;;19.63;55.65;101482.50;5106611;27;19932;-61
2021/08/13 12:37:03;;;;;;;;;;;;;;;19.55;55.78;101483.78;5107928;28;19950;-60
2021/08/13 12:39:34;;;;;;;;;;;;;;;19.70;57.79;101476.72;5108313;27;19971;-58
2021/08/13 12:42:04;;;;;;;;;;;;;;;19.71;55.58;101461.47;5101761;27;20390;-61
2021/08/13 12:44:35;;;;;;;;;;;;;;;19.75;54.21;101471.06;5109982;27;19999;-61
2021/08/13 12:47:03;;;;;;;;;;;;;;;19.63;56.78;101466.38;5115975;28;19949;-61
2021/08/13 12:49:31;;;;;;;;;;;;;;;19.70;56.76;101460.59;5116168;28;19970;-61
2021/08/13 12:52:12;;;;;;;;;;;;;;;19.79;56.53;101461.03;5109210;28;19936;-60